Putten, Netherlands
Current Conditions -  °F | °C
As of 10:55 PM on Sunday 25 Jan 2015 (Local Time) from EHDL Reporting Station
Haze Haze  
Wind Chill: 31°   Ceiling: 400
Heat Index: 37°   Visibility: 1.6mi
Dew Point: 37°   Wind: 8mph
Humidity: 100%   Direction: 200°SSW
Pressure: 30.27"   Gusts: NA
Location:  52.26°N, 5.61°E
Report Text: EHDL 252155Z AUTO 20007KT 2600 BR SCT002 BKN004 BKN005 03/03 Q1025 AMB
Loading
Personal Weather Stations






























Interactive Weather Map New forecast layout! Learn more

10-Day Weather Forecast

Advertisements
Track Severe Weather on mobile